Time;durP1;ratioP1;P1;durP2;ratioP2;P2;SDS_P1;SDS_P2;PMS_P1;PMS_P2;Temp;Humidity;BMP_temperature;BMP_pressure;BME280_temperature;BME280_humidity;BME280_pressure;Samples;Min_cycle;Max_cycle;Signal;HPM_P1;HPM_P2
2022/02/04 00:05:55;;;;;;;8.00;7.22;;;;;;;1.86;79.00;96340.34;1721177;82;21000;-80
2022/02/04 00:08:23;;;;;;;6.28;3.60;;;;;;;1.89;79.11;96335.77;1720913;82;21004;-80
2022/02/04 00:21:49;;;;;;;7.00;5.85;;;;;;;2.18;78.56;96321.77;1719799;82;21036;-80
2022/02/04 00:23:58;;;;;;;4.58;4.17;;;;;;;2.24;78.34;96330.20;1705064;82;21347;-80
2022/02/04 00:26:33;;;;;;;6.12;5.37;;;;;;;2.27;78.23;96311.99;1728656;82;21274;-80
2022/02/04 00:29:07;;;;;;;6.17;5.45;;;;;;;2.30;78.02;96327.61;1733827;82;21009;-80
2022/02/04 00:31:36;;;;;;;6.65;5.10;;;;;;;2.30;77.96;96316.88;1727112;82;20993;-80
2022/02/04 00:34:06;;;;;;;5.08;3.08;;;;;;;2.31;78.03;96322.34;1715696;82;20985;-80
2022/02/04 00:36:36;;;;;;;7.22;4.58;;;;;;;2.32;77.87;96312.43;1727660;82;21048;-80
2022/02/04 00:38:57;;;;;;;5.60;3.72;;;;;;;2.32;77.92;96304.73;1731100;81;20989;-80
2022/02/04 00:41:23;;;;;;;7.95;7.15;;;;;;;2.35;78.02;96307.50;1729938;82;21450;-80
2022/02/04 00:43:51;;;;;;;4.22;3.83;;;;;;;2.37;77.86;96289.75;1711593;82;20988;-80
2022/02/04 00:46:33;;;;;;;5.05;3.20;;;;;;;2.42;77.76;96289.34;1709205;82;21039;-80
2022/02/04 00:51:40;;;;;;;4.12;3.70;;;;;;;2.58;77.35;96291.38;1720333;82;21024;-80
2022/02/04 00:54:22;;;;;;;6.80;5.25;;;;;;;2.58;77.28;96272.95;1714358;81;21057;-80
2022/02/04 00:57:04;;;;;;;;;;;;;;;2.57;77.26;96250.81;1700980;83;21048;-80
2022/02/04 01:26:18;;;;;;;5.20;4.33;;;;;;;3.08;77.34;96205.23;1722374;82;21404;-80
2022/02/04 01:28:46;;;;;;;6.40;5.40;;;;;;;3.18;77.03;96199.59;1727958;83;21089;-80
2022/02/04 01:31:15;;;;;;;7.30;6.62;;;;;;;3.21;76.89;96192.42;1710160;83;21068;-80
2022/02/04 01:33:40;;;;;;;6.60;5.90;;;;;;;3.25;77.00;96187.80;1702459;83;20969;-81
2022/02/04 01:36:06;;;;;;;4.28;3.92;;;;;;;3.25;76.96;96183.50;1712526;83;21037;-80
2022/02/04 01:38:32;;;;;;;3.58;3.27;;;;;;;3.29;76.77;96184.02;1712003;83;21032;-80
2022/02/04 01:40:57;;;;;;;5.28;4.65;;;;;;;3.33;76.44;96180.70;1713036;83;20968;-80
2022/02/04 01:43:23;;;;;;;4.97;2.92;;;;;;;3.30;76.07;96171.05;1713110;83;21006;-80
2022/02/04 01:45:52;;;;;;;2.42;2.05;;;;;;;3.26;76.23;96157.35;1713375;83;21018;-80
2022/02/04 01:48:18;;;;;;;4.75;3.77;;;;;;;3.25;76.38;96154.42;1714434;83;21458;-80
2022/02/04 01:50:46;;;;;;;3.83;3.42;;;;;;;3.26;76.78;96150.94;1723052;83;21075;-80
2022/02/04 01:53:13;;;;;;;3.37;2.20;;;;;;;3.26;76.86;96136.33;1710562;81;21064;-80
2022/02/04 01:55:43;;;;;;;2.95;2.25;;;;;;;3.27;77.39;96134.09;1713320;83;21040;-80
2022/02/04 01:58:09;;;;;;;2.75;2.37;;;;;;;3.25;77.76;96130.87;1714252;83;20969;-80
2022/02/04 02:00:36;;;;;;;3.47;2.70;;;;;;;3.22;77.98;96121.33;1713767;83;21031;-80
2022/02/04 02:03:03;;;;;;;3.02;1.90;;;;;;;3.19;78.50;96125.47;1712916;83;20996;-80
2022/02/04 02:05:30;;;;;;;3.55;1.65;;;;;;;3.17;78.52;96128.66;1720397;83;21389;-80
2022/02/04 02:08:07;;;;;;;1.95;1.75;;;;;;;3.17;78.89;96150.01;1732364;82;21144;-80
2022/02/04 02:10:33;;;;;;;1.65;1.50;;;;;;;3.17;78.64;96129.95;1694827;83;20970;-80
2022/02/04 02:16:06;;;;;;;2.83;1.90;;;;;;;3.25;78.67;96130.03;1722891;83;21364;-80
2022/02/04 02:55:39;;;;;;;2.02;1.47;;;;;;;3.67;72.99;96132.11;1707547;83;20969;-80
2022/02/04 03:03:09;;;;;;;3.30;1.47;;;;;;;3.58;72.27;96136.37;1714726;83;21057;-80
2022/02/04 03:05:35;;;;;;;1.87;1.30;;;;;;;3.55;71.42;96131.50;1726721;82;21393;-81
2022/02/04 03:08:01;;;;;;;1.80;1.37;;;;;;;3.54;71.61;96135.83;1722499;82;20942;-80
2022/02/04 03:10:28;;;;;;;2.85;1.30;;;;;;;3.51;71.69;96138.69;1718820;83;21036;-80
2022/02/04 03:12:54;;;;;;;2.55;1.50;;;;;;;3.51;71.38;96141.27;1695140;82;21312;-81
2022/02/04 03:15:20;;;;;;;2.83;1.40;;;;;;;3.49;71.56;96139.31;1714513;82;21007;-81
2022/02/04 03:17:58;;;;;;;3.42;1.60;;;;;;;3.48;70.15;96133.04;1713393;83;20977;-80
2022/02/04 03:20:17;;;;;;;2.77;1.72;;;;;;;3.49;70.99;96125.19;1710507;83;21348;-80
2022/02/04 03:22:45;;;;;;;2.65;1.82;;;;;;;3.51;70.07;96132.27;1717206;83;20996;-80
2022/02/04 03:25:13;;;;;;;2.98;1.30;;;;;;;3.49;70.26;96133.38;1721874;83;20965;-80
2022/02/04 03:27:45;;;;;;;3.10;1.47;;;;;;;3.51;69.20;96136.59;1732236;82;21040;-80
2022/02/04 03:30:51;;;;;;;3.47;1.40;;;;;;;3.55;68.83;96141.77;1719087;83;21451;-80
2022/02/04 03:32:43;;;;;;;2.77;1.37;;;;;;;3.57;69.36;96137.30;1709267;83;20950;-80
2022/02/04 03:35:06;;;;;;;2.00;1.30;;;;;;;3.56;69.13;96133.11;1724245;82;20942;-80
2022/02/04 03:37:32;;;;;;;1.95;1.50;;;;;;;3.55;69.47;96129.73;1711240;83;21040;-80
2022/02/04 03:39:58;;;;;;;1.77;1.30;;;;;;;3.53;69.20;96128.27;1722043;83;20977;-80
2022/02/04 03:42:23;;;;;;;2.58;1.52;;;;;;;3.52;67.98;96112.53;1722256;82;20997;-81
2022/02/04 03:44:49;;;;;;;2.05;1.42;;;;;;;3.52;68.93;96121.04;1697209;83;20987;-80
2022/02/04 03:47:15;;;;;;;2.02;1.42;;;;;;;3.55;68.03;96123.79;1712590;83;21048;-81
2022/02/04 03:49:40;;;;;;;1.65;1.45;;;;;;;3.56;67.58;96112.08;1719701;83;20965;-80
2022/02/04 03:52:06;;;;;;;4.53;2.58;;;;;;;3.59;68.16;96117.44;1720550;83;21095;-80
2022/02/04 03:54:32;;;;;;;3.65;2.10;;;;;;;3.60;68.11;96117.77;1711860;82;21323;-80
2022/02/04 03:56:57;;;;;;;3.52;2.30;;;;;;;3.57;65.99;96103.42;1709117;83;20977;-80
2022/02/04 03:59:26;;;;;;;2.10;1.70;;;;;;;3.59;67.41;96106.68;1708918;82;21051;-80
2022/02/04 04:01:54;;;;;;;2.58;1.70;;;;;;;3.58;67.18;96105.06;1718912;82;21033;-80
2022/02/04 04:04:20;;;;;;;1.77;1.62;;;;;;;3.60;67.00;96104.44;1731414;83;21029;-80
2022/02/04 04:06:47;;;;;;;2.62;1.15;;;;;;;3.59;67.58;96100.73;1708156;82;21041;-80
2022/02/04 04:09:13;;;;;;;2.33;1.40;;;;;;;3.57;67.11;96101.33;1721113;83;21087;-80
2022/02/04 04:11:45;;;;;;;2.92;1.50;;;;;;;3.53;66.66;96100.82;1712612;82;21021;-80
2022/02/04 04:14:06;;;;;;;3.45;1.60;;;;;;;3.55;66.44;96097.63;1719066;83;21072;-80
2022/02/04 04:16:32;;;;;;;3.12;1.77;;;;;;;3.55;67.46;96110.47;1720680;82;21045;-80
2022/02/04 04:18:58;;;;;;;2.77;1.50;;;;;;;3.51;66.87;96111.72;1722791;82;21010;-80
2022/02/04 04:21:24;;;;;;;2.35;1.75;;;;;;;3.50;66.73;96110.10;1732509;83;21202;-80
2022/02/04 04:23:50;;;;;;;2.20;1.40;;;;;;;3.50;66.30;96106.73;1722231;83;21029;-80
2022/02/04 04:26:17;;;;;;;3.65;1.67;;;;;;;3.50;67.15;96099.83;1714484;82;20972;-81
2022/02/04 04:28:43;;;;;;;2.25;2.05;;;;;;;3.48;67.10;96092.75;1719693;83;21479;-80
2022/02/04 04:31:10;;;;;;;4.65;1.80;;;;;;;3.48;67.03;96100.45;1707836;82;20995;-80
2022/02/04 04:33:35;;;;;;;2.27;1.70;;;;;;;3.47;67.07;96100.60;1713199;83;21018;-80
2022/02/04 04:36:01;;;;;;;4.25;2.08;;;;;;;3.48;67.37;96103.02;1722765;83;20949;-81
2022/02/04 04:38:36;;;;;;;4.15;2.00;;;;;;;3.51;67.65;96099.35;1718177;83;20953;-80
2022/02/04 04:43:50;;;;;;;4.35;2.35;;;;;;;3.53;67.34;96105.95;1722469;83;20981;-80
2022/02/04 05:29:50;;;;;;;5.30;2.87;;;;;;;3.35;67.54;96099.98;1729983;82;20989;-80
2022/02/04 05:32:17;;;;;;;5.42;2.62;;;;;;;3.34;67.40;96109.13;1712309;82;21028;-80
2022/02/04 05:34:45;;;;;;;3.10;2.70;;;;;;;3.33;67.54;96107.50;1713014;82;20995;-80
2022/02/04 05:37:13;;;;;;;4.15;3.10;;;;;;;3.31;67.50;96113.59;1720910;82;21008;-80
2022/02/04 05:39:52;;;;;;;3.22;2.30;;;;;;;3.30;67.05;96109.41;1723199;82;21371;-80
2022/02/04 05:42:12;;;;;;;6.17;3.85;;;;;;;3.33;67.17;96111.36;1733542;82;21000;-81
2022/02/04 05:44:41;;;;;;;6.92;3.50;;;;;;;3.37;67.21;96092.13;1718989;82;20997;-80
2022/02/04 05:47:12;;;;;;;10.10;4.85;;;;;;;3.38;67.62;96091.18;1714000;82;20977;-80
2022/02/04 05:49:34;;;;;;;13.38;5.25;;;;;;;3.38;67.25;96095.84;1722875;82;21033;-80
2022/02/04 05:52:18;;;;;;;5.00;4.10;;;;;;;3.39;67.32;96092.31;1713499;82;21099;-81
2022/02/04 05:57:37;;;;;;;13.00;6.22;;;;;;;3.36;67.41;96093.09;1725785;81;20965;-80
2022/02/04 06:02:51;;;;;;;4.17;2.98;;;;;;;3.38;67.08;96090.70;1711615;82;20993;-80
2022/02/04 06:11:12;;;;;;;4.20;2.87;;;;;;;3.54;67.63;96087.50;1714280;82;21387;-80
2022/02/04 06:23:44;;;;;;;5.20;2.85;;;;;;;3.46;67.05;96093.84;1665495;82;21064;-81
2022/02/04 06:26:10;;;;;;;4.90;3.05;;;;;;;3.48;67.43;96088.09;1726285;82;20988;-81
2022/02/04 06:28:38;;;;;;;6.03;3.58;;;;;;;3.49;67.40;96084.09;1740969;82;21063;-80
2022/02/04 06:31:03;;;;;;;12.37;5.60;;;;;;;3.49;67.28;96079.42;1730034;82;21040;-80
2022/02/04 06:33:30;;;;;;;9.98;4.75;;;;;;;3.50;67.75;96082.33;1713755;82;21403;-80
2022/02/04 06:35:56;;;;;;;6.65;4.67;;;;;;;3.49;67.98;96084.56;1729018;82;20983;-80
2022/02/04 06:38:22;;;;;;;3.02;2.60;;;;;;;3.49;67.89;96087.94;1726589;82;21083;-81
2022/02/04 06:40:48;;;;;;;5.50;4.22;;;;;;;3.50;67.48;96075.42;1716137;82;21378;-80
2022/02/04 06:43:13;;;;;;;5.42;3.52;;;;;;;3.56;68.03;96080.45;1719039;82;20979;-81
2022/02/04 06:45:40;;;;;;;8.13;4.30;;;;;;;3.58;67.88;96080.66;1725745;82;20949;-80
2022/02/04 06:48:07;;;;;;;4.45;2.90;;;;;;;3.60;67.72;96081.31;1732251;82;21063;-81
2022/02/04 06:50:33;;;;;;;5.35;3.08;;;;;;;3.60;67.60;96082.60;1718673;82;20957;-80
2022/02/04 06:52:59;;;;;;;5.22;3.75;;;;;;;3.63;67.75;96092.25;1733139;82;21039;-81
2022/02/04 06:55:25;;;;;;;4.33;2.50;;;;;;;3.61;67.84;96089.36;1725731;82;21020;-81
2022/02/04 06:57:53;;;;;;;4.47;2.62;;;;;;;3.64;68.01;96099.01;1739053;82;20992;-80
2022/02/04 07:00:18;;;;;;;4.85;3.08;;;;;;;3.65;67.71;96102.72;1735694;82;20973;-81
2022/02/04 07:02:46;;;;;;;4.28;2.85;;;;;;;3.69;67.79;96101.94;1718239;82;21009;-80
2022/02/04 07:05:13;;;;;;;3.37;2.55;;;;;;;3.72;68.04;96114.02;1723780;82;20976;-80
2022/02/04 07:07:44;;;;;;;4.75;2.90;;;;;;;3.75;67.98;96113.74;1700883;82;20945;-81
2022/02/04 07:10:18;;;;;;;5.00;2.58;;;;;;;3.76;68.08;96123.07;1731150;82;21032;-80
2022/02/04 07:12:49;;;;;;;5.00;3.33;;;;;;;3.80;67.38;96114.58;1709746;82;20977;-80
2022/02/04 07:15:37;;;;;;;3.67;3.00;;;;;;;3.84;67.80;96116.70;1706042;82;21362;-81
2022/02/04 07:20:06;;;;;;;6.67;3.60;;;;;;;3.89;67.36;96122.20;1703550;82;21383;-80
2022/02/04 07:22:34;;;;;;;15.70;14.15;;;;;;;3.93;67.72;96127.89;1715939;82;21024;-80
2022/02/04 07:25:04;;;;;;;6.83;4.40;;;;;;;3.94;67.61;96129.98;1719033;82;20953;-80
2022/02/04 07:27:31;;;;;;;6.10;3.33;;;;;;;3.94;67.58;96127.41;1722096;82;20945;-80
2022/02/04 07:29:57;;;;;;;7.12;3.30;;;;;;;3.96;67.12;96126.78;1730825;82;20981;-80
2022/02/04 07:42:49;;;;;;;5.40;3.95;;;;;;;3.98;67.11;96134.67;1740590;82;21363;-81
2022/02/04 07:45:15;;;;;;;4.97;3.20;;;;;;;3.97;66.89;96134.82;1734537;81;20988;-81
2022/02/04 07:47:40;;;;;;;6.08;4.90;;;;;;;3.96;67.12;96135.30;1730780;82;21118;-81
2022/02/04 07:50:07;;;;;;;4.92;3.42;;;;;;;3.95;67.29;96138.83;1719595;82;20933;-81
2022/02/04 07:52:33;;;;;;;5.20;3.65;;;;;;;3.94;67.19;96133.83;1720287;82;21015;-81
2022/02/04 07:54:59;;;;;;;4.33;2.70;;;;;;;3.95;67.13;96138.83;1726448;82;21068;-81
2022/02/04 07:57:25;;;;;;;5.35;3.10;;;;;;;3.96;66.95;96140.92;1730341;82;21019;-81
2022/02/04 07:59:50;;;;;;;5.10;3.00;;;;;;;3.98;66.94;96133.87;1694073;82;21000;-81
2022/02/04 08:02:16;;;;;;;6.12;3.10;;;;;;;3.98;66.92;96126.96;1719974;82;20961;-81
2022/02/04 08:04:45;;;;;;;3.00;2.55;;;;;;;4.00;66.93;96129.37;1727455;81;21100;-81
2022/02/04 08:07:14;;;;;;;4.08;2.72;;;;;;;4.01;66.66;96125.85;1720909;82;21075;-81
2022/02/04 08:12:20;;;;;;;4.60;2.75;;;;;;;4.04;66.77;96125.08;1717408;82;21337;-81
2022/02/04 08:14:50;;;;;;;4.80;2.70;;;;;;;4.07;66.82;96128.66;1714279;82;21055;-82
2022/02/04 08:35:29;;;;;;;6.37;3.42;;;;;;;4.15;66.68;96127.43;1728663;82;20997;-81
2022/02/04 08:56:36;;;;;;;5.50;3.22;;;;;;;4.26;66.18;96145.70;1711609;82;21040;-82
2022/02/04 08:59:01;;;;;;;8.28;4.45;;;;;;;4.27;65.73;96147.79;1709412;82;20969;-81
2022/02/04 09:01:26;;;;;;;4.78;3.10;;;;;;;4.28;66.41;96148.92;1711448;81;20980;-81
2022/02/04 09:03:51;;;;;;;5.05;2.83;;;;;;;4.30;65.99;96146.20;1709688;82;21056;-82
2022/02/04 09:06:23;;;;;;;6.37;3.12;;;;;;;4.30;66.27;96147.00;1714838;83;21085;-81
2022/02/04 09:08:51;;;;;;;4.70;3.33;;;;;;;4.31;66.04;96156.34;1722957;83;20997;-81
2022/02/04 09:11:37;;;;;;;5.83;3.45;;;;;;;4.32;66.15;96159.72;1720173;83;21446;-81
2022/02/04 09:19:17;;;;;;;7.80;2.95;;;;;;;4.35;65.96;96167.13;1703261;83;20981;-80
2022/02/04 09:24:13;;;;;;;5.12;2.92;;;;;;;4.36;66.33;96160.55;1713897;82;21052;-81
2022/02/04 09:26:39;;;;;;;4.05;3.30;;;;;;;4.37;65.80;96163.45;1715898;81;20996;-81
2022/02/04 09:29:05;;;;;;;7.15;3.33;;;;;;;4.40;65.89;96169.61;1715372;82;21127;-81
2022/02/04 09:31:33;;;;;;;4.83;4.00;;;;;;;4.44;65.96;96164.97;1723212;81;21420;-81
2022/02/04 09:33:58;;;;;;;6.78;3.80;;;;;;;4.48;66.28;96167.56;1736531;81;20948;-80
2022/02/04 09:36:24;;;;;;;5.62;3.10;;;;;;;4.52;66.30;96160.67;1718329;81;21346;-81
2022/02/04 09:38:50;;;;;;;5.70;3.08;;;;;;;4.57;65.80;96162.82;1671740;84;21020;-81
2022/02/04 09:41:21;;;;;;;6.50;3.72;;;;;;;4.59;65.82;96153.19;1721227;81;21118;-81
2022/02/04 09:43:48;;;;;;;5.85;3.33;;;;;;;4.63;65.47;96157.06;1722239;81;21424;-81
2022/02/04 09:46:16;;;;;;;5.80;3.25;;;;;;;4.66;65.04;96146.95;1731441;81;21024;-81
2022/02/04 09:48:45;;;;;;;4.53;2.72;;;;;;;4.67;64.62;96146.80;1727044;81;21107;-80
2022/02/04 09:51:13;;;;;;;5.60;3.08;;;;;;;4.70;65.11;96141.34;1715212;81;21000;-81
2022/02/04 10:15:47;;;;;;;6.60;4.30;;;;;;;5.00;64.60;96135.41;1731028;81;21427;-81
2022/02/04 10:18:14;;;;;;;7.12;3.58;;;;;;;5.01;64.67;96136.53;1727410;81;21048;-81
2022/02/04 10:20:39;;;;;;;5.15;3.42;;;;;;;5.01;64.83;96135.25;1672273;85;21012;-80
2022/02/04 10:23:05;;;;;;;4.15;3.17;;;;;;;4.97;64.97;96136.52;1682236;83;21395;-80
2022/02/04 10:25:33;;;;;;;6.65;3.75;;;;;;;4.93;64.50;96132.64;1668205;85;20973;-81
2022/02/04 10:28:22;;;;;;;6.17;3.27;;;;;;;4.91;64.47;96131.19;1666775;83;21431;-80
2022/02/04 10:31:28;;;;;;;6.95;3.45;;;;;;;4.92;64.79;96131.03;1677904;83;21459;-81
2022/02/04 10:34:06;;;;;;;4.00;2.92;;;;;;;4.95;64.72;96125.57;1675978;83;20991;-81
2022/02/04 10:37:04;;;;;;;5.80;3.30;;;;;;;4.97;64.33;96121.55;1681505;83;20989;-80
2022/02/04 10:45:02;;;;;;;5.33;3.42;;;;;;;4.98;65.14;96116.25;1678965;83;21003;-80
2022/02/04 10:48:05;;;;;;;7.15;3.52;;;;;;;4.98;65.22;96121.39;1686211;83;21099;-80
2022/02/04 11:04:05;;;;;;;8.38;4.58;;;;;;;5.10;66.08;96125.33;1726405;81;21052;-81
2022/02/04 11:09:09;;;;;;;5.72;3.40;;;;;;;5.15;65.85;96104.73;1718692;81;21007;-81
2022/02/04 11:36:35;;;;;;;7.00;4.50;;;;;;;4.58;67.75;96090.30;1713468;81;21472;-81
2022/02/04 11:49:15;;;;;;;5.60;4.37;;;;;;;4.63;68.12;96097.87;1667850;84;21545;-80
2022/02/04 11:54:30;;;;;;;7.30;5.00;;;;;;;4.66;68.09;96097.56;1716191;80;21597;-81
2022/02/04 11:56:30;;;;;;;8.35;5.62;;;;;;;4.66;68.45;96103.19;1715890;80;21485;-81
2022/02/04 11:59:00;;;;;;;5.70;4.00;;;;;;;4.69;68.54;96103.69;1729848;81;20953;-81
2022/02/04 12:01:42;;;;;;;20.68;10.32;;;;;;;4.75;68.34;96103.11;1742050;80;21454;-80
2022/02/04 12:04:23;;;;;;;10.80;6.55;;;;;;;4.80;68.28;96109.88;1731924;80;20933;-80
2022/02/04 12:06:48;;;;;;;7.70;4.83;;;;;;;4.86;68.24;96114.08;1740105;81;21068;-80
2022/02/04 12:09:39;;;;;;;8.03;4.22;;;;;;;4.83;68.08;96105.70;1727384;81;21052;-81
2022/02/04 12:12:06;;;;;;;5.92;4.05;;;;;;;4.78;68.10;96101.98;1740294;81;20983;-81
2022/02/04 12:14:32;;;;;;;7.90;4.12;;;;;;;4.69;68.10;96104.98;1743353;81;20994;-81
2022/02/04 12:17:12;;;;;;;7.00;4.45;;;;;;;4.61;68.23;96101.56;1733956;80;21343;-80
2022/02/04 12:19:46;;;;;;;7.62;5.58;;;;;;;4.57;68.55;96100.26;1736029;81;21323;-81
2022/02/04 12:22:12;;;;;;;7.55;5.10;;;;;;;4.51;68.52;96100.36;1678015;84;21040;-81
2022/02/04 12:24:40;;;;;;;7.67;5.10;;;;;;;4.42;68.49;96113.67;1750947;81;21454;-81
2022/02/04 12:27:27;;;;;;;5.80;4.33;;;;;;;4.33;68.53;96110.69;1746608;81;20964;-81
2022/02/04 12:29:53;;;;;;;7.78;5.00;;;;;;;4.28;68.91;96097.48;1722216;81;21542;-81
2022/02/04 12:32:19;;;;;;;8.38;6.15;;;;;;;4.26;68.81;96099.88;1728811;81;21008;-80
2022/02/04 12:34:47;;;;;;;8.78;5.90;;;;;;;4.26;68.95;96103.73;1739576;81;21056;-80
2022/02/04 12:37:16;;;;;;;9.70;5.80;;;;;;;4.22;69.10;96109.63;1735165;81;21006;-81
2022/02/04 12:39:42;;;;;;;19.87;10.43;;;;;;;4.19;69.22;96099.65;1743216;81;20992;-81
2022/02/04 12:42:13;;;;;;;21.80;10.80;;;;;;;4.19;69.40;96100.94;1726200;81;20986;-81
2022/02/04 12:44:41;;;;;;;9.83;6.53;;;;;;;4.16;69.37;96102.52;1730639;81;21026;-81
2022/02/04 12:47:10;;;;;;;8.50;5.60;;;;;;;4.13;69.50;96101.54;1658742;84;20965;-80
2022/02/04 12:49:55;;;;;;;14.30;8.75;;;;;;;4.11;69.63;96091.88;1702711;83;20992;-81
2022/02/04 12:52:26;;;;;;;17.02;10.55;;;;;;;4.10;69.79;96101.84;1692610;83;21000;-80
2022/02/04 13:08:25;;;;;;;9.60;5.75;;;;;;;4.06;70.65;96091.50;1687588;83;21132;-80
2022/02/04 13:11:02;;;;;;;11.00;5.97;;;;;;;4.04;71.22;96089.08;1690791;83;20983;-80
2022/02/04 13:13:33;;;;;;;9.55;5.95;;;;;;;4.04;71.47;96085.22;1688933;83;21080;-80
2022/02/04 13:15:57;;;;;;;7.05;4.87;;;;;;;4.08;71.84;96084.47;1685372;83;22249;-80
2022/02/04 13:18:26;;;;;;;9.28;5.28;;;;;;;4.09;71.41;96083.03;1696732;83;21090;-81
2022/02/04 13:20:56;;;;;;;10.28;6.00;;;;;;;4.10;71.22;96070.98;1693198;83;22256;-80
2022/02/04 13:23:24;;;;;;;6.12;4.40;;;;;;;4.10;71.16;96073.56;1697917;83;21521;-80
2022/02/04 13:25:57;;;;;;;7.33;5.03;;;;;;;4.11;71.31;96070.03;1695101;83;21429;-81
2022/02/04 13:28:33;;;;;;;12.68;6.28;;;;;;;4.11;71.20;96072.60;1691035;83;21012;-81
2022/02/04 13:31:05;;;;;;;7.15;4.25;;;;;;;4.13;71.22;96066.83;1694116;83;21003;-80
2022/02/04 13:33:40;;;;;;;6.17;3.50;;;;;;;4.11;71.31;96063.13;1679852;84;21003;-80
2022/02/04 13:46:59;;;;;;;19.35;9.98;;;;;;;4.31;71.65;96048.78;1679336;84;21063;-80
2022/02/04 13:49:52;;;;;;;9.53;5.75;;;;;;;4.36;71.71;96051.23;1672033;84;21383;-81
2022/02/04 13:52:20;;;;;;;9.60;5.70;;;;;;;4.38;71.71;96051.07;1699834;83;21000;-81
2022/02/04 13:55:03;;;;;;;6.60;4.87;;;;;;;4.37;71.62;96054.60;1737669;81;21021;-81
2022/02/04 13:58:33;;;;;;;7.53;4.83;;;;;;;4.32;71.68;96052.97;1726872;81;21484;-82
2022/02/04 14:00:23;;;;;;;6.65;5.08;;;;;;;4.27;71.87;96050.86;1679109;81;20957;-82
2022/02/04 14:02:49;;;;;;;6.12;4.40;;;;;;;4.24;71.96;96051.16;1725197;81;21392;-82
2022/02/04 14:05:14;;;;;;;12.60;6.20;;;;;;;4.17;72.01;96053.52;1701630;81;21004;-82
2022/02/04 14:07:53;;;;;;;6.35;4.22;;;;;;;4.16;72.24;96055.76;1728120;81;21016;-82
2022/02/04 14:10:17;;;;;;;7.55;4.50;;;;;;;4.14;72.37;96053.81;1722249;81;20949;-83
2022/02/04 14:12:43;;;;;;;5.08;4.35;;;;;;;4.06;72.56;96054.22;1734171;81;20956;-83
2022/02/04 14:15:09;;;;;;;9.13;6.35;;;;;;;4.07;72.56;96048.16;1727396;81;20980;-82
2022/02/04 14:17:36;;;;;;;20.90;11.63;;;;;;;4.06;72.55;96054.22;1726725;81;21495;-82
2022/02/04 14:20:02;;;;;;;9.68;7.45;;;;;;;4.08;72.59;96056.19;1669063;85;20980;-86
2022/02/04 14:22:28;;;;;;;6.72;5.17;;;;;;;4.07;72.58;96055.39;1729893;81;20968;-82
2022/02/04 14:24:54;;;;;;;6.75;4.67;;;;;;;4.05;72.66;96054.70;1739885;81;21115;-82
2022/02/04 14:27:20;;;;;;;10.70;6.80;;;;;;;4.02;72.67;96055.48;1736108;81;21390;-82
2022/02/04 14:29:59;;;;;;;9.55;5.40;;;;;;;3.99;72.86;96056.59;1737924;81;20987;-82
2022/02/04 14:32:35;;;;;;;12.90;8.08;;;;;;;3.96;73.07;96059.47;1738593;81;20989;-81
2022/02/04 14:35:04;;;;;;;20.08;11.40;;;;;;;3.94;73.07;96060.58;1723372;81;20970;-82
2022/02/04 15:03:36;;;;;;;7.70;6.80;;;;;;;3.68;73.96;96069.02;1737065;81;21366;-81
2022/02/04 15:06:14;;;;;;;10.90;8.33;;;;;;;3.65;74.06;96068.02;1745250;81;20954;-81
2022/02/04 15:08:38;;;;;;;14.13;9.28;;;;;;;3.63;74.04;96067.84;1741409;81;20991;-80
2022/02/04 15:11:14;;;;;;;10.50;7.40;;;;;;;3.61;74.09;96076.51;1738579;81;21015;-80
2022/02/04 15:13:36;;;;;;;8.28;5.95;;;;;;;3.62;74.14;96073.47;1742648;81;21062;-81
2022/02/04 15:16:06;;;;;;;10.68;7.22;;;;;;;3.61;74.22;96079.55;1739637;81;20991;-81
2022/02/04 15:18:29;;;;;;;8.23;5.22;;;;;;;3.58;74.27;96082.42;1753370;81;20961;-81
2022/02/04 15:20:59;;;;;;;9.45;6.35;;;;;;;3.55;74.50;96084.78;1726654;81;20929;-80
2022/02/04 15:23:22;;;;;;;8.80;6.47;;;;;;;3.51;74.33;96084.75;1732391;81;20965;-80
2022/02/04 15:25:52;;;;;;;8.90;6.55;;;;;;;3.50;74.44;96088.27;1745183;81;20996;-80
2022/02/04 15:28:33;;;;;;;14.23;9.55;;;;;;;3.50;74.47;96082.33;1752736;81;21031;-81
2022/02/04 15:30:47;;;;;;;17.25;9.95;;;;;;;3.49;74.57;96075.09;1740261;80;21023;-82
2022/02/04 15:33:13;;;;;;;13.55;9.08;;;;;;;3.48;74.62;96081.66;1747979;81;20985;-82
2022/02/04 15:35:38;;;;;;;9.03;6.20;;;;;;;3.45;74.67;96080.67;1742161;81;20941;-82
2022/02/04 15:38:08;;;;;;;25.02;15.35;;;;;;;3.40;74.73;96079.80;1717866;81;20944;-81
2022/02/04 15:40:36;;;;;;;11.12;7.65;;;;;;;3.40;74.89;96079.80;1739993;81;21406;-81
2022/02/04 15:43:05;;;;;;;15.83;8.83;;;;;;;3.41;74.78;96081.89;1745885;80;21051;-82
2022/02/04 15:58:25;;;;;;;9.58;7.67;;;;;;;3.29;75.07;96082.12;1684944;84;21009;-82
2022/02/04 16:05:41;;;;;;;8.03;6.00;;;;;;;3.30;75.39;96070.09;1669518;84;21101;-82
2022/02/04 16:08:03;;;;;;;8.03;6.25;;;;;;;3.28;75.37;96068.14;1726795;81;20997;-83
2022/02/04 16:10:48;;;;;;;8.98;5.65;;;;;;;3.27;75.28;96072.95;1732280;81;20938;-83
2022/02/04 16:13:22;;;;;;;10.03;6.90;;;;;;;3.23;75.38;96067.27;1726621;81;21070;-82
2022/02/04 16:15:53;;;;;;;15.78;11.90;;;;;;;3.23;75.40;96061.33;1646952;85;21096;-82
2022/02/04 16:18:21;;;;;;;13.30;9.75;;;;;;;3.24;75.39;96056.52;1673647;84;20951;-82
2022/02/04 16:24:15;;;;;;;12.45;7.30;;;;;;;3.22;75.38;96058.42;1725703;81;21001;-83
2022/02/04 16:28:39;;;;;;;13.13;9.10;;;;;;;3.20;75.29;96059.05;1734847;81;21033;-82
2022/02/04 16:31:06;;;;;;;29.27;18.67;;;;;;;3.21;75.37;96057.62;1731530;81;21400;-82
2022/02/04 16:33:34;;;;;;;14.07;11.28;;;;;;;3.23;75.18;96048.48;1722984;81;21043;-82
2022/02/04 16:36:07;;;;;;;27.22;15.30;;;;;;;3.24;75.33;96043.68;1716372;81;21005;-83
2022/02/04 16:38:31;;;;;;;18.85;14.70;;;;;;;3.23;75.20;96046.73;1728989;81;21443;-82
2022/02/04 16:41:05;;;;;;;27.75;20.43;;;;;;;3.21;75.19;96042.22;1666762;84;20975;-82
2022/02/04 16:43:25;;;;;;;15.63;12.05;;;;;;;3.18;75.17;96044.27;1646168;84;21501;-81
2022/02/04 16:45:53;;;;;;;16.27;11.68;;;;;;;3.17;75.17;96043.94;1697715;82;21092;-84
2022/02/04 16:48:19;;;;;;;13.25;10.55;;;;;;;3.17;75.14;96038.33;1737426;81;21082;-82
2022/02/04 16:50:44;;;;;;;16.70;13.35;;;;;;;3.17;75.09;96036.23;1730596;80;21421;-85
2022/02/04 16:53:11;;;;;;;12.60;10.40;;;;;;;3.12;75.11;96026.89;1743414;80;20983;-81
2022/02/04 16:55:37;;;;;;;12.55;10.15;;;;;;;3.13;75.17;96025.93;1710309;81;21012;-82
2022/02/04 16:58:03;;;;;;;12.10;8.38;;;;;;;3.10;75.18;96035.21;1731857;80;21388;-82
2022/02/04 17:00:29;;;;;;;10.80;7.67;;;;;;;3.10;75.20;96027.03;1733960;80;21000;-82
2022/02/04 17:02:58;;;;;;;15.65;8.78;;;;;;;3.11;75.16;96036.34;1732679;80;20947;-82
2022/02/04 17:05:25;;;;;;;19.60;10.68;;;;;;;3.10;75.24;96032.17;1719641;81;21043;-83
2022/02/04 17:07:54;;;;;;;35.92;20.65;;;;;;;3.09;75.18;96045.12;1728732;81;20968;-81
2022/02/04 17:10:27;;;;;;;57.78;29.45;;;;;;;3.05;75.12;96044.60;1729701;81;21391;-82
2022/02/04 17:12:48;;;;;;;76.70;29.40;;;;;;;3.03;75.08;96044.42;1731516;81;20989;-81
2022/02/04 17:15:14;;;;;;;18.62;11.00;;;;;;;3.01;75.09;96051.79;1727018;81;20997;-81
2022/02/04 17:17:40;;;;;;;25.85;11.10;;;;;;;3.04;74.84;96037.05;1732424;81;20926;-81
2022/02/04 17:20:13;;;;;;;16.77;8.80;;;;;;;3.06;74.86;96038.99;1733644;81;20980;-81
2022/02/04 17:22:38;;;;;;;22.42;11.20;;;;;;;3.06;74.93;96033.86;1731407;81;21096;-81
2022/02/04 17:25:09;;;;;;;50.75;20.77;;;;;;;3.04;74.98;96028.88;1730177;81;21051;-81
2022/02/04 17:27:33;;;;;;;30.48;16.27;;;;;;;3.03;74.95;96036.72;1726581;81;21040;-81
2022/02/04 17:29:59;;;;;;;50.38;26.12;;;;;;;3.02;74.89;96034.62;1679797;84;21372;-81
2022/02/04 17:32:26;;;;;;;18.62;9.73;;;;;;;3.04;74.83;96037.05;1724918;81;21005;-81
2022/02/04 17:34:53;;;;;;;33.73;12.93;;;;;;;3.06;74.71;96028.72;1666969;84;21351;-81
2022/02/04 17:37:20;;;;;;;16.20;8.48;;;;;;;3.08;74.75;96025.53;1661414;84;21005;-82
2022/02/04 17:39:46;;;;;;;14.13;7.90;;;;;;;3.07;74.67;96022.64;1677496;83;21438;-81
2022/02/04 17:42:12;;;;;;;45.23;15.93;;;;;;;3.07;74.75;96029.05;1668424;83;21053;-81
2022/02/04 17:44:38;;;;;;;38.88;23.12;;;;;;;3.05;74.73;96025.34;1678415;84;20997;-81
2022/02/04 17:47:05;;;;;;;22.17;13.43;;;;;;;3.08;74.67;96026.81;1678724;84;21049;-81
2022/02/04 17:49:46;;;;;;;21.48;9.60;;;;;;;3.09;74.67;96029.27;1667368;84;21484;-81
2022/02/04 17:52:15;;;;;;;32.48;14.03;;;;;;;3.11;74.61;96021.42;1664965;85;21460;-80
2022/02/04 17:54:36;;;;;;;11.70;6.85;;;;;;;3.13;74.58;96027.22;1722365;81;21028;-80
2022/02/04 17:57:05;;;;;;;47.83;17.40;;;;;;;3.15;74.68;96018.41;1727673;81;21029;-80
2022/02/04 18:02:01;;;;;;;13.05;9.90;;;;;;;3.13;74.70;96017.75;1727724;81;21035;-79